Time;durP1;ratioP1;P1;durP2;ratioP2;P2;SDS_P1;SDS_P2;PMS_P1;PMS_P2;Temp;Humidity;BMP_temperature;BMP_pressure;BME280_temperature;BME280_humidity;BME280_pressure;Samples;Min_cycle;Max_cycle;Signal;HPM_P1;HPM_P2
2023/06/28 00:00:28;;;;;;;7.10;2.90;;;;;;;18.04;100.00;101979.75;4984003;28;20498;-61
2023/06/28 00:02:55;;;;;;;13.15;3.53;;;;;;;18.02;100.00;101982.50;5052417;28;20034;-60
2023/06/28 00:05:21;;;;;;;5.78;2.85;;;;;;;18.03;100.00;101978.03;4985074;28;20104;-62
2023/06/28 00:07:46;;;;;;;9.60;3.20;;;;;;;18.02;100.00;101981.63;4984973;28;20062;-60
2023/06/28 00:10:12;;;;;;;9.88;2.72;;;;;;;18.00;100.00;101971.03;4985029;28;20065;-61
2023/06/28 00:12:37;;;;;;;5.85;2.85;;;;;;;17.99;100.00;101969.31;4983144;28;20428;-60
2023/06/28 00:15:03;;;;;;;7.90;2.60;;;;;;;17.99;100.00;101974.63;5051137;28;20034;-61
2023/06/28 00:17:28;;;;;;;8.77;2.80;;;;;;;18.05;100.00;101966.34;4984641;28;20054;-63
2023/06/28 00:20:05;;;;;;;8.95;2.95;;;;;;;18.05;100.00;101965.47;4984936;28;20022;-60
2023/06/28 00:22:31;;;;;;;9.57;2.70;;;;;;;18.06;100.00;101967.19;5064328;28;20083;-61
2023/06/28 00:24:58;;;;;;;11.48;3.13;;;;;;;18.10;100.00;101968.84;5051425;28;20030;-61
2023/06/28 00:27:23;;;;;;;6.57;2.80;;;;;;;17.99;100.00;101971.09;4982659;28;20030;-60
2023/06/28 00:29:48;;;;;;;8.98;2.78;;;;;;;17.99;100.00;101973.75;4988294;28;20044;-60
2023/06/28 00:32:14;;;;;;;10.13;3.22;;;;;;;18.01;100.00;101979.91;4987491;28;20400;-61
2023/06/28 00:34:39;;;;;;;8.98;3.15;;;;;;;18.01;100.00;101967.44;4989072;28;20034;-61
2023/06/28 00:37:05;;;;;;;10.68;3.15;;;;;;;18.01;100.00;101974.56;4988940;28;20480;-60
2023/06/28 00:39:31;;;;;;;5.88;3.03;;;;;;;18.08;100.00;101970.66;4987273;28;20030;-61
2023/06/28 00:41:56;;;;;;;4.28;2.30;;;;;;;18.09;100.00;101972.38;4986777;28;20026;-60
2023/06/28 00:44:22;;;;;;;6.05;2.58;;;;;;;18.17;100.00;101962.25;4986946;28;20145;-61
2023/06/28 00:46:48;;;;;;;9.27;3.10;;;;;;;18.09;100.00;101967.06;4987832;28;20136;-61
2023/06/28 00:49:14;;;;;;;8.75;2.88;;;;;;;18.11;100.00;101965.22;4987290;28;20437;-61
2023/06/28 00:51:39;;;;;;;5.45;2.60;;;;;;;18.16;100.00;101963.22;4987799;28;20027;-60
2023/06/28 00:54:05;;;;;;;9.55;3.30;;;;;;;18.19;100.00;101968.38;5054025;28;20097;-61
2023/06/28 00:56:31;;;;;;;7.80;3.03;;;;;;;18.17;100.00;101970.25;4988334;28;20027;-60
2023/06/28 00:58:57;;;;;;;6.00;2.53;;;;;;;18.19;100.00;101967.53;5053099;28;20525;-62
2023/06/28 01:01:23;;;;;;;9.90;3.38;;;;;;;18.15;100.00;101961.47;5054785;28;20038;-60
2023/06/28 01:03:50;;;;;;;8.13;3.05;;;;;;;18.16;100.00;101962.34;4987356;28;20034;-60
2023/06/28 01:06:17;;;;;;;8.20;3.22;;;;;;;18.16;100.00;101954.34;4988746;28;20022;-60
2023/06/28 01:08:43;;;;;;;7.13;2.60;;;;;;;18.16;100.00;101957.88;4987816;28;20677;-60
2023/06/28 01:11:09;;;;;;;7.75;2.78;;;;;;;18.13;100.00;101962.47;4987775;28;20023;-61
2023/06/28 01:13:35;;;;;;;8.40;3.20;;;;;;;18.04;100.00;101956.63;5054791;28;20080;-61
2023/06/28 01:16:01;;;;;;;12.95;3.50;;;;;;;18.05;100.00;101953.03;4987032;28;20075;-61
2023/06/28 01:18:27;;;;;;;7.05;3.00;;;;;;;18.08;100.00;101957.34;5055810;28;20141;-61
2023/06/28 01:20:55;;;;;;;9.45;3.35;;;;;;;18.12;100.00;101955.44;5058820;28;20030;-62
2023/06/28 01:23:25;;;;;;;13.00;3.77;;;;;;;18.03;100.00;101954.03;4983491;28;20042;-63
2023/06/28 01:25:50;;;;;;;9.43;2.90;;;;;;;18.02;100.00;101954.94;4986767;28;20493;-63
2023/06/28 01:28:16;;;;;;;7.13;3.17;;;;;;;18.03;100.00;101949.53;4986444;28;20038;-61
2023/06/28 01:30:42;;;;;;;7.20;3.28;;;;;;;17.96;100.00;101949.91;4987198;28;20030;-60
2023/06/28 01:33:07;;;;;;;7.82;3.80;;;;;;;17.97;100.00;101946.31;4981068;28;20128;-61
2023/06/28 01:35:32;;;;;;;9.98;3.55;;;;;;;17.91;100.00;101951.00;4967582;28;20058;-61
2023/06/28 01:37:59;;;;;;;10.20;3.47;;;;;;;17.90;100.00;101951.06;4969607;28;20462;-61
2023/06/28 01:40:24;;;;;;;8.25;3.50;;;;;;;17.92;100.00;101950.09;5052669;28;20035;-61
2023/06/28 01:42:50;;;;;;;10.52;3.80;;;;;;;17.91;100.00;101944.81;5054095;28;20022;-61
2023/06/28 01:45:15;;;;;;;10.90;3.50;;;;;;;17.96;100.00;101947.25;4985760;28;20348;-60
2023/06/28 01:47:41;;;;;;;8.43;3.78;;;;;;;17.94;100.00;101950.84;4987309;28;20113;-63
2023/06/28 01:50:07;;;;;;;7.38;3.45;;;;;;;18.00;100.00;101951.50;5052590;28;20440;-60
2023/06/28 01:52:32;;;;;;;10.43;3.80;;;;;;;17.92;100.00;101949.22;5053843;28;20061;-61
2023/06/28 01:54:58;;;;;;;10.20;4.20;;;;;;;18.01;100.00;101948.78;4985919;28;20102;-60
2023/06/28 01:57:23;;;;;;;11.70;4.18;;;;;;;17.96;100.00;101944.56;4986434;28;20033;-61
2023/06/28 01:59:48;;;;;;;13.00;4.00;;;;;;;17.97;100.00;101947.16;4986915;28;20022;-61
2023/06/28 02:02:14;;;;;;;6.32;3.83;;;;;;;17.99;100.00;101950.63;4984904;28;20031;-59
2023/06/28 02:04:39;;;;;;;10.18;4.25;;;;;;;17.95;100.00;101949.06;4986980;28;20022;-60
2023/06/28 02:07:05;;;;;;;13.05;4.13;;;;;;;17.97;100.00;101949.00;4985951;28;20061;-60
2023/06/28 02:09:30;;;;;;;13.07;4.47;;;;;;;17.87;100.00;101945.88;4986344;28;20030;-62
2023/06/28 02:11:55;;;;;;;12.60;4.45;;;;;;;17.88;100.00;101945.81;4985167;28;20026;-62
2023/06/28 02:14:21;;;;;;;12.13;4.25;;;;;;;17.86;100.00;101950.38;4986613;28;20033;-60
2023/06/28 02:16:46;;;;;;;9.30;4.20;;;;;;;17.89;100.00;101950.22;4986018;28;20037;-60
2023/06/28 02:19:12;;;;;;;13.02;4.90;;;;;;;17.89;100.00;101944.03;4986698;28;20524;-60
2023/06/28 02:21:40;;;;;;;11.00;4.00;;;;;;;17.88;100.00;101936.97;4983168;28;20146;-61
2023/06/28 02:24:07;;;;;;;8.73;4.22;;;;;;;17.92;100.00;101939.41;4986288;28;20121;-61
2023/06/28 02:26:34;;;;;;;9.63;4.53;;;;;;;17.89;100.00;101939.56;4984403;28;20030;-61
2023/06/28 02:28:59;;;;;;;10.70;4.50;;;;;;;17.92;100.00;101938.53;4984587;28;20444;-61
2023/06/28 02:31:25;;;;;;;11.50;4.25;;;;;;;17.93;100.00;101935.81;4985979;28;20030;-60
2023/06/28 02:33:50;;;;;;;8.80;4.13;;;;;;;17.89;100.00;101930.69;4984623;28;20062;-63
2023/06/28 02:36:16;;;;;;;11.60;3.95;;;;;;;17.97;100.00;101925.00;4986743;28;20076;-61
2023/06/28 02:38:41;;;;;;;7.72;3.88;;;;;;;18.02;100.00;101928.28;4984374;28;20118;-62
2023/06/28 02:41:06;;;;;;;12.85;4.00;;;;;;;17.97;100.00;101930.31;4986479;28;20240;-61
2023/06/28 02:43:32;;;;;;;9.25;4.25;;;;;;;17.91;100.00;101927.00;4985171;28;20057;-61
2023/06/28 02:45:57;;;;;;;11.45;3.75;;;;;;;18.01;100.00;101923.91;4984402;28;20038;-61
2023/06/28 02:48:22;;;;;;;12.52;4.50;;;;;;;17.99;100.00;101920.44;4986171;28;20565;-61
2023/06/28 02:50:48;;;;;;;14.05;4.80;;;;;;;17.98;100.00;101922.25;4985458;28;20066;-61
2023/06/28 02:53:14;;;;;;;11.43;4.90;;;;;;;17.97;100.00;101914.34;4985046;28;20060;-60
2023/06/28 02:55:39;;;;;;;15.68;5.45;;;;;;;17.92;100.00;101918.09;4985671;28;20034;-60
2023/06/28 02:58:05;;;;;;;13.10;5.35;;;;;;;17.90;100.00;101911.94;4984752;28;20402;-61
2023/06/28 03:00:30;;;;;;;8.30;4.47;;;;;;;17.97;100.00;101914.34;4985117;28;20038;-61
2023/06/28 03:02:55;;;;;;;10.32;4.88;;;;;;;17.99;100.00;101918.63;4985635;28;20023;-61
2023/06/28 03:05:21;;;;;;;15.63;5.40;;;;;;;17.98;100.00;101916.94;4984896;28;20041;-61
2023/06/28 03:07:46;;;;;;;16.05;5.93;;;;;;;17.91;100.00;101918.16;4986197;28;20065;-61
2023/06/28 03:10:11;;;;;;;14.80;5.50;;;;;;;17.92;100.00;101918.09;4984602;28;20109;-61
2023/06/28 03:12:37;;;;;;;8.88;5.00;;;;;;;17.92;100.00;101919.88;4984133;28;20501;-62
2023/06/28 03:15:03;;;;;;;13.18;5.32;;;;;;;17.93;100.00;101918.94;5051164;28;20033;-61
2023/06/28 03:17:28;;;;;;;15.02;5.40;;;;;;;17.93;100.00;101919.81;4985995;28;20014;-61
2023/06/28 03:19:54;;;;;;;9.90;5.03;;;;;;;17.97;100.00;101915.19;4983900;28;20034;-60
2023/06/28 03:22:19;;;;;;;10.45;5.00;;;;;;;17.99;100.00;101913.31;4984529;28;20104;-61
2023/06/28 03:24:44;;;;;;;15.23;5.75;;;;;;;18.01;100.00;101926.56;4983868;28;20041;-61
2023/06/28 03:27:10;;;;;;;13.55;5.85;;;;;;;17.98;100.00;101914.25;4984275;28;20037;-62
2023/06/28 03:29:35;;;;;;;7.70;5.30;;;;;;;18.05;100.00;101912.13;4984454;28;20110;-60
2023/06/28 03:32:00;;;;;;;15.70;6.07;;;;;;;18.11;100.00;101911.88;4984869;28;20048;-60
2023/06/28 03:34:26;;;;;;;12.30;5.45;;;;;;;18.10;100.00;101907.50;4984610;28;20030;-60
2023/06/28 03:36:51;;;;;;;10.30;5.10;;;;;;;18.12;100.00;101902.09;4984369;28;20045;-62
2023/06/28 03:39:18;;;;;;;11.43;5.47;;;;;;;18.15;100.00;101900.13;4984530;28;20035;-61
2023/06/28 03:41:43;;;;;;;13.43;6.10;;;;;;;18.15;100.00;101900.13;4984183;28;20088;-61
2023/06/28 03:44:09;;;;;;;11.35;5.25;;;;;;;18.15;100.00;101892.13;4983557;28;20035;-60
2023/06/28 03:46:34;;;;;;;9.10;6.20;;;;;;;18.21;100.00;101892.75;4985208;28;20577;-62
2023/06/28 03:48:59;;;;;;;11.05;6.13;;;;;;;18.19;100.00;101896.34;4984480;28;20068;-62
2023/06/28 03:51:25;;;;;;;10.93;5.82;;;;;;;18.19;100.00;101893.69;4984440;28;20023;-60
2023/06/28 03:53:50;;;;;;;13.80;5.97;;;;;;;18.26;100.00;101893.38;4984415;28;20451;-62
2023/06/28 03:56:15;;;;;;;13.93;6.72;;;;;;;18.28;100.00;101892.38;4985118;28;20187;-60
2023/06/28 03:58:41;;;;;;;12.25;5.95;;;;;;;18.27;100.00;101893.31;4983906;28;20018;-60
2023/06/28 04:01:06;;;;;;;17.85;6.78;;;;;;;18.30;100.00;101886.94;4984656;28;20030;-59
2023/06/28 04:03:31;;;;;;;18.23;6.78;;;;;;;18.33;100.00;101881.47;4983741;28;20026;-62
2023/06/28 04:05:57;;;;;;;14.68;6.88;;;;;;;18.26;100.00;101888.91;5051186;28;20029;-60
2023/06/28 04:08:26;;;;;;;17.38;6.70;;;;;;;18.30;100.00;101886.94;5058445;28;20030;-61
2023/06/28 04:10:51;;;;;;;;;;;;;;;18.23;100.00;101889.06;4987729;28;20105;-60
2023/06/28 04:13:17;;;;;;;14.80;6.82;;;;;;;18.35;100.00;101884.06;4983643;28;20266;-60
2023/06/28 04:15:42;;;;;;;14.63;6.40;;;;;;;18.39;100.00;101885.66;4984353;28;20049;-61
2023/06/28 04:18:07;;;;;;;18.10;6.90;;;;;;;18.34;100.00;101888.53;4984400;28;20030;-61
2023/06/28 04:20:33;;;;;;;12.52;5.88;;;;;;;18.43;100.00;101880.06;4984039;28;20364;-61
2023/06/28 04:22:58;;;;;;;13.15;7.07;;;;;;;18.43;100.00;101885.38;4984141;28;20299;-61
2023/06/28 04:25:23;;;;;;;15.27;7.82;;;;;;;18.39;100.00;101883.81;4992912;28;20026;-61
2023/06/28 04:27:49;;;;;;;19.88;7.10;;;;;;;18.39;100.00;101885.66;4987131;28;20042;-61
2023/06/28 04:30:15;;;;;;;16.65;7.10;;;;;;;18.40;100.00;101895.38;5050660;28;20410;-61
2023/06/28 04:32:42;;;;;;;16.17;6.63;;;;;;;18.46;100.00;101884.38;4984128;28;20133;-61
2023/06/28 04:35:09;;;;;;;14.10;6.47;;;;;;;18.43;100.00;101890.72;4983721;28;20447;-64
2023/06/28 04:37:39;;;;;;;13.90;7.20;;;;;;;18.49;100.00;101894.03;4984061;28;20098;-60
2023/06/28 04:40:05;;;;;;;12.27;7.13;;;;;;;18.48;100.00;101889.66;4996744;28;20383;-61
2023/06/28 04:42:31;;;;;;;16.90;7.45;;;;;;;18.43;100.00;101888.06;4982921;28;20049;-61
2023/06/28 04:44:59;;;;;;;14.25;6.70;;;;;;;18.55;100.00;101881.22;4980244;28;20462;-60
2023/06/28 04:47:26;;;;;;;13.75;7.22;;;;;;;18.50;100.00;101885.06;4984116;28;20419;-62
2023/06/28 04:49:52;;;;;;;16.98;6.28;;;;;;;18.50;100.00;101891.28;4983550;28;20443;-66
2023/06/28 04:52:18;;;;;;;13.40;6.38;;;;;;;18.46;100.00;101887.06;4983373;28;20109;-61
2023/06/28 04:54:44;;;;;;;18.35;7.72;;;;;;;18.43;100.00;101888.06;4983738;28;20019;-61
2023/06/28 04:57:10;;;;;;;15.85;6.47;;;;;;;18.49;100.00;101883.38;4981224;28;20517;-61
2023/06/28 04:59:36;;;;;;;21.05;8.57;;;;;;;18.38;100.00;101882.09;4984377;28;20107;-62
2023/06/28 05:02:05;;;;;;;19.13;7.68;;;;;;;18.51;100.00;101881.50;5030835;28;20034;-62
2023/06/28 05:04:32;;;;;;;;;;;;;;;18.46;100.00;101887.06;4971711;28;20026;-60
2023/06/28 05:07:04;;;;;;;17.88;7.22;;;;;;;18.46;100.00;101889.72;4981997;28;20346;-60
2023/06/28 05:09:33;;;;;;;20.27;7.43;;;;;;;18.47;100.00;101886.09;4984298;28;20046;-63
2023/06/28 05:11:59;;;;;;;13.60;6.38;;;;;;;18.46;100.00;101883.50;4982634;28;20095;-62
2023/06/28 05:14:25;;;;;;;19.02;7.55;;;;;;;18.41;100.00;101879.28;4984651;28;20030;-64
2023/06/28 05:16:51;;;;;;;15.98;7.13;;;;;;;18.42;100.00;101878.34;4986582;28;20029;-63
2023/06/28 05:19:17;;;;;;;14.88;6.82;;;;;;;18.53;100.00;101879.59;4988198;28;20018;-62
2023/06/28 05:21:42;;;;;;;15.85;7.47;;;;;;;18.51;100.00;101882.34;4986138;28;20087;-61
2023/06/28 05:24:08;;;;;;;22.35;7.35;;;;;;;18.51;100.00;101877.00;4984092;28;20072;-60
2023/06/28 05:26:33;;;;;;;18.52;7.22;;;;;;;18.56;100.00;101869.63;4985943;28;20543;-61
2023/06/28 05:28:58;;;;;;;17.00;6.82;;;;;;;18.62;100.00;101872.91;4984499;28;20105;-61
2023/06/28 05:31:24;;;;;;;16.95;6.55;;;;;;;18.62;100.00;101878.25;4987594;28;20097;-61
2023/06/28 05:33:49;;;;;;;15.18;6.68;;;;;;;18.66;100.00;101871.84;4986337;28;20481;-61
2023/06/28 05:36:15;;;;;;;15.48;7.05;;;;;;;18.61;100.00;101877.41;4984735;28;20026;-63
2023/06/28 05:38:40;;;;;;;23.65;7.40;;;;;;;18.67;100.00;101871.72;4986360;28;20041;-66
2023/06/28 05:41:13;;;;;;;15.23;6.75;;;;;;;18.75;100.00;101875.81;4985406;28;20031;-65
2023/06/28 05:43:38;;;;;;;18.48;6.88;;;;;;;18.77;100.00;101872.13;4984114;28;20022;-62
2023/06/28 05:46:03;;;;;;;20.13;7.13;;;;;;;18.78;100.00;101868.50;4986249;28;20023;-63
2023/06/28 05:48:31;;;;;;;16.98;6.97;;;;;;;18.79;100.00;101869.38;4983593;28;20022;-61
2023/06/28 05:50:56;;;;;;;19.48;6.50;;;;;;;18.76;100.00;101869.53;4985536;28;20463;-61
2023/06/28 05:53:21;;;;;;;11.35;5.97;;;;;;;18.76;100.00;101867.75;4986445;28;20027;-61
2023/06/28 05:55:47;;;;;;;18.67;6.88;;;;;;;18.75;100.00;101871.31;4985347;28;20030;-62
2023/06/28 05:58:12;;;;;;;17.95;6.40;;;;;;;18.77;100.00;101873.91;4986035;28;20473;-61
2023/06/28 06:00:38;;;;;;;23.55;6.80;;;;;;;18.89;100.00;101862.59;4985837;28;20501;-60
2023/06/28 06:03:03;;;;;;;14.57;6.32;;;;;;;19.02;100.00;101864.63;4986050;28;20478;-62
2023/06/28 06:05:28;;;;;;;9.65;6.03;;;;;;;19.06;100.00;101860.84;4985912;28;20027;-64
2023/06/28 06:07:54;;;;;;;20.92;6.13;;;;;;;19.18;100.00;101854.00;5052049;28;20060;-62
2023/06/28 06:10:19;;;;;;;13.07;6.03;;;;;;;19.20;100.00;101862.78;4985457;28;20117;-62
2023/06/28 06:12:45;;;;;;;11.88;5.65;;;;;;;19.28;100.00;101857.03;4984724;28;20022;-62
2023/06/28 06:15:11;;;;;;;15.70;6.07;;;;;;;19.41;100.00;101860.75;4984796;28;20030;-61
2023/06/28 06:17:36;;;;;;;21.65;6.85;;;;;;;19.41;100.00;101865.22;5052193;28;20036;-61
2023/06/28 06:20:02;;;;;;;13.98;6.43;;;;;;;19.49;100.00;101856.78;4982185;28;20018;-61
2023/06/28 06:22:27;;;;;;;14.02;6.03;;;;;;;19.50;100.00;101861.19;5032168;28;20091;-62
2023/06/28 06:24:52;;;;;;;11.32;5.80;;;;;;;19.48;100.00;101868.44;4984686;28;20069;-60
2023/06/28 06:27:18;;;;;;;14.93;7.10;;;;;;;19.42;100.00;101872.31;4980874;28;20026;-64
2023/06/28 06:29:43;;;;;;;17.17;5.85;;;;;;;19.44;100.00;101871.25;4985333;28;20031;-62
2023/06/28 06:32:09;;;;;;;15.32;6.10;;;;;;;19.55;100.00;101864.47;4983237;28;20015;-62
2023/06/28 06:34:34;;;;;;;17.42;6.90;;;;;;;19.65;100.00;101862.13;4982443;28;20551;-62
2023/06/28 06:36:59;;;;;;;15.18;6.15;;;;;;;19.68;100.00;101860.16;4985670;28;20026;-61
2023/06/28 06:39:25;;;;;;;16.75;6.78;;;;;;;19.82;100.00;101866.53;4983266;28;20015;-62
2023/06/28 06:41:50;;;;;;;13.82;6.13;;;;;;;19.96;100.00;101865.75;4983679;28;20113;-64
2023/06/28 06:44:15;;;;;;;15.25;6.88;;;;;;;19.93;100.00;101865.91;4984542;28;20026;-63
2023/06/28 06:46:41;;;;;;;18.13;6.53;;;;;;;19.92;100.00;101864.16;4983379;28;20074;-62
2023/06/28 06:49:06;;;;;;;14.02;7.13;;;;;;;20.02;100.00;101860.03;4984846;28;20028;-63
2023/06/28 06:51:33;;;;;;;20.35;7.05;;;;;;;20.04;100.00;101858.16;4982168;28;21327;-62
2023/06/28 06:53:58;;;;;;;15.20;6.15;;;;;;;20.18;100.00;101859.16;4985071;28;20573;-61
2023/06/28 06:56:24;;;;;;;17.30;6.63;;;;;;;20.17;100.00;101860.97;4983061;28;21733;-62
2023/06/28 06:58:50;;;;;;;16.65;6.07;;;;;;;20.24;100.00;101861.47;4983775;28;20026;-62
2023/06/28 07:01:15;;;;;;;16.35;5.95;;;;;;;20.35;100.00;101859.97;4985378;28;20042;-62
2023/06/28 07:03:41;;;;;;;12.88;6.13;;;;;;;20.22;100.00;101866.06;4981920;28;20018;-61
2023/06/28 07:06:06;;;;;;;15.48;6.38;;;;;;;20.23;100.00;101862.44;4984557;28;20040;-62
2023/06/28 07:08:33;;;;;;;19.55;6.13;;;;;;;20.30;100.00;101870.97;4986062;28;20023;-63
2023/06/28 07:10:59;;;;;;;19.08;6.57;;;;;;;20.27;100.00;101873.81;4985846;28;20075;-62
2023/06/28 07:13:24;;;;;;;19.63;6.32;;;;;;;20.29;100.00;101869.25;4985681;28;20526;-62
2023/06/28 07:15:49;;;;;;;17.65;5.75;;;;;;;20.42;100.00;101872.03;4985558;28;20408;-63
2023/06/28 07:18:15;;;;;;;16.33;5.70;;;;;;;20.76;100.00;101863.78;4986563;28;20054;-62
2023/06/28 07:20:40;;;;;;;14.65;6.75;;;;;;;20.78;100.00;101873.47;4985311;28;20064;-61
2023/06/28 07:23:06;;;;;;;11.10;5.85;;;;;;;20.96;100.00;101876.00;4982007;28;20046;-61
2023/06/28 07:25:32;;;;;;;14.20;6.43;;;;;;;21.00;100.00;101876.63;4984691;28;20030;-60
2023/06/28 07:27:58;;;;;;;17.35;5.90;;;;;;;21.18;100.00;101880.00;4982504;28;20038;-61
2023/06/28 07:30:23;;;;;;;12.10;6.00;;;;;;;21.20;100.00;101876.25;4982232;28;20392;-62
2023/06/28 07:32:49;;;;;;;13.32;6.15;;;;;;;21.50;100.00;101878.91;4981167;28;20034;-62
2023/06/28 07:35:14;;;;;;;11.70;6.22;;;;;;;21.52;100.00;101882.38;4981559;28;20022;-61
2023/06/28 07:37:40;;;;;;;12.73;6.20;;;;;;;21.68;100.00;101882.22;4984564;28;20558;-61
2023/06/28 07:40:06;;;;;;;16.08;6.60;;;;;;;21.76;100.00;101884.44;4982630;28;20014;-60
2023/06/28 07:42:31;;;;;;;17.08;6.55;;;;;;;21.85;100.00;101878.47;5048374;28;20181;-63
2023/06/28 07:44:58;;;;;;;15.45;6.05;;;;;;;21.77;100.00;101878.13;4983695;28;20027;-62
2023/06/28 07:47:23;;;;;;;14.48;6.70;;;;;;;21.86;100.00;101880.22;4981715;28;20238;-60
2023/06/28 07:49:49;;;;;;;14.15;6.25;;;;;;;22.08;100.00;101871.59;4984134;28;20033;-62
2023/06/28 07:52:14;;;;;;;13.38;6.30;;;;;;;22.15;100.00;101880.06;4982675;28;20033;-62
2023/06/28 07:54:40;;;;;;;17.85;6.47;;;;;;;22.21;100.00;101876.97;4981981;28;20026;-62
2023/06/28 07:57:05;;;;;;;16.45;6.07;;;;;;;22.21;100.00;101876.97;5049717;28;20039;-62
2023/06/28 07:59:31;;;;;;;18.10;6.72;;;;;;;22.45;100.00;101875.41;4982126;28;20498;-62
2023/06/28 08:01:56;;;;;;;19.45;6.30;;;;;;;22.66;100.00;101862.38;4982696;28;20054;-61
2023/06/28 08:04:22;;;;;;;15.75;6.38;;;;;;;22.96;100.00;101879.13;4983140;28;20037;-61
2023/06/28 08:06:48;;;;;;;15.68;6.28;;;;;;;22.99;100.00;101878.91;4982674;28;20526;-62
2023/06/28 08:09:14;;;;;;;18.70;6.65;;;;;;;22.76;100.00;101878.72;5049355;28;20030;-62
2023/06/28 08:11:39;;;;;;;16.92;6.55;;;;;;;22.91;100.00;101870.53;4982583;28;20054;-61
2023/06/28 08:14:05;;;;;;;13.00;6.85;;;;;;;22.70;100.00;101874.59;4982185;28;20466;-61
2023/06/28 08:16:30;;;;;;;13.38;5.85;;;;;;;22.88;100.00;101877.00;4982499;28;20035;-60
2023/06/28 08:18:56;;;;;;;13.77;6.00;;;;;;;22.96;100.00;101881.81;4982432;28;20505;-62
2023/06/28 08:21:21;;;;;;;16.13;6.50;;;;;;;22.83;100.00;101874.63;4982418;28;20105;-62
2023/06/28 08:23:47;;;;;;;11.40;6.18;;;;;;;22.76;100.00;101872.47;4983515;28;20047;-62
2023/06/28 08:26:12;;;;;;;18.30;6.50;;;;;;;22.76;100.00;101888.59;4981433;28;20175;-61
2023/06/28 08:28:37;;;;;;;12.98;6.38;;;;;;;22.78;100.00;101875.94;4981021;28;20026;-62
2023/06/28 08:31:03;;;;;;;15.88;6.30;;;;;;;22.63;100.00;101884.06;4982927;28;20022;-61
2023/06/28 08:33:28;;;;;;;16.08;6.88;;;;;;;22.61;100.00;101885.16;4981913;28;20471;-61
2023/06/28 08:35:55;;;;;;;20.70;7.95;;;;;;;22.63;100.00;101873.31;4980056;28;20027;-61
2023/06/28 08:38:20;;;;;;;17.52;7.57;;;;;;;22.66;100.00;101877.66;4983816;28;20026;-64
2023/06/28 08:40:45;;;;;;;23.48;8.45;;;;;;;22.46;100.00;101879.84;4979296;28;20045;-62
2023/06/28 08:43:14;;;;;;;21.90;7.43;;;;;;;22.66;100.00;101888.38;4981629;28;20105;-61
2023/06/28 08:45:41;;;;;;;23.77;8.27;;;;;;;22.74;100.00;101877.09;4983587;28;20018;-62
2023/06/28 08:48:07;;;;;;;18.58;8.57;;;;;;;22.70;100.00;101871.94;4981249;28;20030;-63
2023/06/28 08:50:34;;;;;;;19.02;8.45;;;;;;;22.77;100.00;101891.19;4983769;28;20474;-61
2023/06/28 08:53:02;;;;;;;20.83;7.65;;;;;;;22.80;100.00;101884.72;4986644;28;20045;-62
2023/06/28 08:55:28;;;;;;;21.05;9.48;;;;;;;22.92;100.00;101881.19;4985429;28;20082;-61
2023/06/28 08:57:54;;;;;;;14.77;8.88;;;;;;;23.00;100.00;101882.47;4984037;28;20554;-63
2023/06/28 09:00:19;;;;;;;18.45;8.95;;;;;;;23.02;100.00;101877.84;5068173;28;20463;-61
2023/06/28 09:02:45;;;;;;;21.17;9.60;;;;;;;23.29;100.00;101868.75;4985020;28;20018;-62
2023/06/28 09:05:10;;;;;;;21.38;10.00;;;;;;;23.38;100.00;101876.19;4984949;28;20378;-61
2023/06/28 09:07:40;;;;;;;19.95;9.88;;;;;;;23.54;100.00;101872.41;4986490;28;20030;-62
2023/06/28 09:10:07;;;;;;;23.75;10.07;;;;;;;23.73;100.00;101875.47;5057864;28;20061;-62
2023/06/28 09:12:33;;;;;;;18.65;10.10;;;;;;;23.85;100.00;101888.97;4984638;28;20379;-62
2023/06/28 09:14:59;;;;;;;25.17;11.30;;;;;;;23.93;100.00;101883.84;4985245;28;20025;-61
2023/06/28 09:17:24;;;;;;;20.77;11.00;;;;;;;23.70;100.00;101882.88;4983523;28;20022;-61
2023/06/28 09:19:50;;;;;;;29.38;12.18;;;;;;;23.41;100.00;101878.66;5054541;28;20025;-62
2023/06/28 09:22:15;;;;;;;18.85;10.52;;;;;;;23.33;100.00;101876.50;4985665;28;20023;-61
2023/06/28 09:24:41;;;;;;;22.60;10.98;;;;;;;23.43;100.00;101876.75;4983856;28;20050;-61
2023/06/28 09:27:07;;;;;;;21.67;11.88;;;;;;;23.21;100.00;101878.25;4984820;28;20030;-61
2023/06/28 09:29:33;;;;;;;22.73;11.52;;;;;;;23.02;100.00;101878.69;4984862;28;20049;-62
2023/06/28 09:32:00;;;;;;;26.00;12.48;;;;;;;22.88;100.00;101874.31;4984057;28;20394;-62
2023/06/28 09:34:25;;;;;;;20.35;11.75;;;;;;;22.85;100.00;101870.00;4986221;28;20038;-61
2023/06/28 09:36:52;;;;;;;22.42;11.13;;;;;;;23.16;100.00;101875.03;4984324;28;20531;-62
2023/06/28 09:39:18;;;;;;;26.58;14.23;;;;;;;23.26;100.00;101874.38;4984542;28;20420;-61
2023/06/28 09:41:44;;;;;;;26.17;14.20;;;;;;;23.40;100.00;101868.88;4983993;28;20033;-62
2023/06/28 09:44:10;;;;;;;26.30;14.52;;;;;;;23.29;100.00;101874.13;5052514;28;20461;-63
2023/06/28 09:46:42;;;;;;;24.55;12.93;;;;;;;23.59;100.00;101872.91;4984789;28;20023;-62
2023/06/28 09:49:19;;;;;;;27.13;12.88;;;;;;;23.85;100.00;101878.19;4983701;28;20382;-61
2023/06/28 09:51:44;;;;;;;26.42;13.95;;;;;;;23.90;100.00;101873.31;4985900;28;20455;-60
2023/06/28 09:54:09;;;;;;;21.75;12.95;;;;;;;24.44;100.00;101864.88;4984234;28;20034;-62
2023/06/28 09:56:35;;;;;;;24.65;13.07;;;;;;;24.53;100.00;101866.00;4983644;28;20136;-63
2023/06/28 09:59:05;;;;;;;22.70;12.73;;;;;;;25.10;100.00;101861.53;4985234;28;20049;-62
2023/06/28 10:01:31;;;;;;;32.17;13.30;;;;;;;25.07;98.81;101864.47;4982699;28;20478;-61
2023/06/28 10:03:59;;;;;;;21.55;11.98;;;;;;;24.99;99.48;101859.69;4983942;28;20053;-62
2023/06/28 10:06:25;;;;;;;24.40;12.48;;;;;;;25.03;99.24;101864.84;4985435;28;20026;-61
2023/06/28 10:08:50;;;;;;;19.83;11.80;;;;;;;24.81;100.00;101867.38;5050804;28;20483;-63
2023/06/28 10:11:16;;;;;;;24.70;13.25;;;;;;;24.32;100.00;101872.06;4984197;28;20056;-62
2023/06/28 10:13:43;;;;;;;23.50;10.65;;;;;;;24.73;100.00;101869.81;5051932;28;20023;-62
2023/06/28 10:16:18;;;;;;;23.50;11.55;;;;;;;25.10;100.00;101863.34;5052133;28;20391;-62
2023/06/28 10:18:44;;;;;;;20.15;10.43;;;;;;;24.90;100.00;101855.03;4984433;28;20022;-60
2023/06/28 10:21:10;;;;;;;21.65;11.63;;;;;;;25.02;100.00;101863.13;4986176;28;20023;-64
2023/06/28 10:23:38;;;;;;;21.48;12.48;;;;;;;25.32;99.95;101861.63;4986141;28;20551;-61
2023/06/28 10:26:05;;;;;;;27.63;12.68;;;;;;;25.76;95.89;101855.44;5047207;28;20095;-61
2023/06/28 10:28:38;;;;;;;21.00;11.32;;;;;;;26.04;95.90;101853.97;4985593;28;20087;-60
2023/06/28 10:31:04;;;;;;;25.65;12.02;;;;;;;26.31;93.57;101847.22;4987003;28;20022;-60
2023/06/28 10:33:31;;;;;;;22.30;11.65;;;;;;;26.80;92.35;101845.78;4985651;28;20033;-61
2023/06/28 10:36:00;;;;;;;22.85;12.00;;;;;;;26.89;91.49;101847.69;4985061;28;20049;-60
2023/06/28 10:38:26;;;;;;;21.85;11.68;;;;;;;26.45;92.21;101843.34;4985733;28;20026;-61
2023/06/28 10:40:51;;;;;;;22.75;12.50;;;;;;;25.92;94.06;101850.47;4983836;28;20033;-61
2023/06/28 10:43:24;;;;;;;27.05;12.57;;;;;;;25.82;95.31;101854.91;5051950;28;20040;-60
2023/06/28 10:45:50;;;;;;;23.17;11.95;;;;;;;25.40;96.23;101851.06;5068865;28;20042;-61
2023/06/28 10:48:23;;;;;;;23.67;12.60;;;;;;;25.03;97.72;101857.63;4984252;28;20022;-61
2023/06/28 10:50:50;;;;;;;27.65;12.52;;;;;;;24.77;99.34;101859.66;4986102;28;20525;-60
2023/06/28 10:53:33;;;;;;;25.67;12.93;;;;;;;24.58;100.00;101856.56;4985325;28;20163;-62
2023/06/28 10:56:08;;;;;;;24.13;12.00;;;;;;;24.68;100.00;101851.31;5050767;28;20111;-61
2023/06/28 10:58:42;;;;;;;24.45;12.45;;;;;;;25.04;99.52;101847.69;4986548;28;20027;-62
2023/06/28 11:01:09;;;;;;;22.27;10.63;;;;;;;25.36;98.75;101855.88;4984609;28;20030;-62
2023/06/28 11:03:42;;;;;;;23.23;10.90;;;;;;;25.67;97.54;101851.66;4984190;28;20026;-60